sensor_id;sensor_type;location;lat;lon;timestamp;pressure;altitude;pressure_sealevel;temperature;humidity
9141;BME280;46330;50.822;7.126;2023-09-19T00:01:42;100298.75;;;16.02;95.95
9141;BME280;46330;50.822;7.126;2023-09-19T00:04:33;100303.47;;;15.96;96.43
9141;BME280;46330;50.822;7.126;2023-09-19T00:07:01;100301.13;;;15.90;96.78
9141;BME280;46330;50.822;7.126;2023-09-19T00:09:30;100301.13;;;15.90;96.52
9141;BME280;46330;50.822;7.126;2023-09-19T00:11:58;100292.75;;;15.80;97.23
9141;BME280;46330;50.822;7.126;2023-09-19T00:14:26;100293.81;;;15.76;97.29
9141;BME280;46330;50.822;7.126;2023-09-19T00:16:56;100298.94;;;15.79;97.67
9141;BME280;46330;50.822;7.126;2023-09-19T00:19:25;100296.59;;;15.73;98.18
9141;BME280;46330;50.822;7.126;2023-09-19T00:21:53;100302.25;;;15.66;97.73
9141;BME280;46330;50.822;7.126;2023-09-19T00:24:22;100304.03;;;15.65;97.44
9141;BME280;46330;50.822;7.126;2023-09-19T00:26:50;100316.19;;;15.68;97.35
9141;BME280;46330;50.822;7.126;2023-09-19T00:29:18;100307.53;;;15.66;97.23
9141;BME280;46330;50.822;7.126;2023-09-19T00:31:46;100296.31;;;15.60;97.66
9141;BME280;46330;50.822;7.126;2023-09-19T00:34:16;100303.50;;;15.57;97.69
9141;BME280;46330;50.822;7.126;2023-09-19T00:36:45;100303.22;;;15.63;96.77
9141;BME280;46330;50.822;7.126;2023-09-19T00:39:13;100303.22;;;15.63;97.31
9141;BME280;46330;50.822;7.126;2023-09-19T00:41:41;100306.94;;;15.59;97.52
9141;BME280;46330;50.822;7.126;2023-09-19T00:44:11;100301.00;;;15.54;97.05
9141;BME280;46330;50.822;7.126;2023-09-19T00:46:39;100301.81;;;15.56;96.73
9141;BME280;46330;50.822;7.126;2023-09-19T00:49:09;100308.22;;;15.50;96.61
9141;BME280;46330;50.822;7.126;2023-09-19T00:51:39;100305.22;;;15.58;96.50
9141;BME280;46330;50.822;7.126;2023-09-19T00:54:12;100305.69;;;15.47;96.42
9141;BME280;46330;50.822;7.126;2023-09-19T00:56:45;100308.41;;;15.44;96.53
9141;BME280;46330;50.822;7.126;2023-09-19T00:59:15;100313.91;;;15.40;96.60
9141;BME280;46330;50.822;7.126;2023-09-19T01:01:43;100316.22;;;15.47;96.82
9141;BME280;46330;50.822;7.126;2023-09-19T01:04:12;100320.69;;;15.45;97.33
9141;BME280;46330;50.822;7.126;2023-09-19T01:06:42;100326.19;;;15.41;97.39
9141;BME280;46330;50.822;7.126;2023-09-19T01:09:12;100332.34;;;15.40;97.10
9141;BME280;46330;50.822;7.126;2023-09-19T01:11:43;100326.72;;;15.49;97.69
9141;BME280;46330;50.822;7.126;2023-09-19T01:14:20;100331.38;;;15.42;97.54
9141;BME280;46330;50.822;7.126;2023-09-19T01:16:57;100330.44;;;15.43;98.08
9141;BME280;46330;50.822;7.126;2023-09-19T01:22:52;100330.25;;;15.48;96.88
9141;BME280;46330;50.822;7.126;2023-09-19T01:28:42;100336.78;;;15.59;96.52
9141;BME280;46330;50.822;7.126;2023-09-19T01:31:17;100334.34;;;15.55;96.71
9141;BME280;46330;50.822;7.126;2023-09-19T01:33:57;100342.06;;;15.59;96.71
9141;BME280;46330;50.822;7.126;2023-09-19T01:36:28;100347.41;;;15.58;96.34
9141;BME280;46330;50.822;7.126;2023-09-19T01:38:58;100342.97;;;15.58;96.34
9141;BME280;46330;50.822;7.126;2023-09-19T01:41:55;100352.34;;;15.66;96.03
9141;BME280;46330;50.822;7.126;2023-09-19T01:44:29;100351.34;;;15.68;96.23
9141;BME280;46330;50.822;7.126;2023-09-19T01:47:04;100355.88;;;15.65;95.88
9141;BME280;46330;50.822;7.126;2023-09-19T01:49:43;100356.53;;;15.70;95.93
9141;BME280;46330;50.822;7.126;2023-09-19T01:52:13;100357.34;;;15.72;95.73
9141;BME280;46330;50.822;7.126;2023-09-19T01:54:48;100357.13;;;15.76;95.43
9141;BME280;46330;50.822;7.126;2023-09-19T01:57:25;100361.53;;;15.76;95.70
9141;BME280;46330;50.822;7.126;2023-09-19T02:00:00;100362.66;;;15.70;94.03
9141;BME280;46330;50.822;7.126;2023-09-19T02:02:40;100367.63;;;15.78;94.51
9141;BME280;46330;50.822;7.126;2023-09-19T02:05:11;100384.44;;;15.75;91.23
9141;BME280;46330;50.822;7.126;2023-09-19T02:07:39;100370.25;;;15.78;89.35
9141;BME280;46330;50.822;7.126;2023-09-19T02:10:08;100376.31;;;15.80;89.23
9141;BME280;46330;50.822;7.126;2023-09-19T02:12:38;100387.00;;;15.77;88.51
9141;BME280;46330;50.822;7.126;2023-09-19T02:15:07;100393.03;;;15.79;87.88
9141;BME280;46330;50.822;7.126;2023-09-19T02:17:35;100389.25;;;15.66;87.19
9141;BME280;46330;50.822;7.126;2023-09-19T02:20:07;100391.03;;;15.65;86.47
9141;BME280;46330;50.822;7.126;2023-09-19T02:22:41;100397.09;;;15.67;86.99
9141;BME280;46330;50.822;7.126;2023-09-19T02:25:09;100395.25;;;15.69;86.95
9141;BME280;46330;50.822;7.126;2023-09-19T02:27:40;100403.41;;;15.63;86.65
9141;BME280;46330;50.822;7.126;2023-09-19T02:30:10;100413.53;;;15.53;87.12
9141;BME280;46330;50.822;7.126;2023-09-19T02:32:38;100409.88;;;15.56;87.72
9141;BME280;46330;50.822;7.126;2023-09-19T02:35:08;100400.56;;;15.47;86.85
9141;BME280;46330;50.822;7.126;2023-09-19T02:37:38;100411.16;;;15.46;87.72
9141;BME280;46330;50.822;7.126;2023-09-19T02:40:07;100412.22;;;15.42;87.11
9141;BME280;46330;50.822;7.126;2023-09-19T02:42:46;100409.34;;;15.48;87.42
9141;BME280;46330;50.822;7.126;2023-09-19T02:45:16;100413.75;;;15.47;87.77
9141;BME280;46330;50.822;7.126;2023-09-19T02:47:45;100408.94;;;15.37;88.17
9141;BME280;46330;50.822;7.126;2023-09-19T02:50:16;100418.88;;;15.30;87.65
9141;BME280;46330;50.822;7.126;2023-09-19T02:52:45;100419.72;;;15.31;88.50
9141;BME280;46330;50.822;7.126;2023-09-19T02:55:15;100424.41;;;15.24;88.51
9141;BME280;46330;50.822;7.126;2023-09-19T02:57:46;100427.81;;;15.26;89.36
9141;BME280;46330;50.822;7.126;2023-09-19T03:00:15;100426.31;;;15.21;89.35
9141;BME280;46330;50.822;7.126;2023-09-19T03:02:43;100423.63;;;15.22;89.80
9141;BME280;46330;50.822;7.126;2023-09-19T03:05:13;100426.56;;;15.15;89.56
9141;BME280;46330;50.822;7.126;2023-09-19T03:07:43;100424.69;;;15.17;90.34
9141;BME280;46330;50.822;7.126;2023-09-19T03:10:13;100430.22;;;15.11;90.08
9141;BME280;46330;50.822;7.126;2023-09-19T03:12:43;100421.47;;;15.10;90.07
9141;BME280;46330;50.822;7.126;2023-09-19T03:15:11;100426.84;;;15.07;90.19
9141;BME280;46330;50.822;7.126;2023-09-19T03:17:43;100431.94;;;15.12;91.39
9141;BME280;46330;50.822;7.126;2023-09-19T03:20:12;100438.22;;;15.09;91.35
9141;BME280;46330;50.822;7.126;2023-09-19T03:22:43;100445.88;;;14.93;91.39
9141;BME280;46330;50.822;7.126;2023-09-19T03:25:11;100449.25;;;14.97;91.02
9141;BME280;46330;50.822;7.126;2023-09-19T03:27:43;100449.13;;;15.00;91.20
9141;BME280;46330;50.822;7.126;2023-09-19T03:30:12;100450.91;;;14.99;91.58
9141;BME280;46330;50.822;7.126;2023-09-19T03:32:45;100459.34;;;14.86;91.43
9141;BME280;46330;50.822;7.126;2023-09-19T03:35:18;100454.63;;;14.94;91.76
9141;BME280;46330;50.822;7.126;2023-09-19T03:37:49;100461.91;;;14.87;91.12
9141;BME280;46330;50.822;7.126;2023-09-19T03:40:19;100454.81;;;14.89;92.06
9141;BME280;46330;50.822;7.126;2023-09-19T03:42:48;100461.91;;;14.87;91.21
9141;BME280;46330;50.822;7.126;2023-09-19T03:45:17;100456.41;;;14.93;91.46
9141;BME280;46330;50.822;7.126;2023-09-19T03:47:50;100450.19;;;14.94;92.74
9141;BME280;46330;50.822;7.126;2023-09-19T03:50:21;100452.16;;;14.89;91.83
9141;BME280;46330;50.822;7.126;2023-09-19T03:52:56;100447.81;;;14.88;92.63
9141;BME280;46330;50.822;7.126;2023-09-19T03:55:24;100447.88;;;14.87;91.62
9141;BME280;46330;50.822;7.126;2023-09-19T03:57:53;100448.25;;;14.78;92.27
9141;BME280;46330;50.822;7.126;2023-09-19T04:00:21;100452.50;;;14.82;92.08
9141;BME280;46330;50.822;7.126;2023-09-19T04:02:53;100452.38;;;14.85;91.70
9141;BME280;46330;50.822;7.126;2023-09-19T04:05:23;100455.84;;;14.85;92.30
9141;BME280;46330;50.822;7.126;2023-09-19T04:07:52;100446.38;;;14.81;92.65
9141;BME280;46330;50.822;7.126;2023-09-19T04:10:21;100449.16;;;14.77;92.75
9141;BME280;46330;50.822;7.126;2023-09-19T04:12:52;100450.06;;;14.76;93.80
9141;BME280;46330;50.822;7.126;2023-09-19T04:15:22;100443.47;;;14.66;93.67
9141;BME280;46330;50.822;7.126;2023-09-19T04:17:53;100447.13;;;14.62;93.73
9141;BME280;46330;50.822;7.126;2023-09-19T04:20:21;100459.44;;;14.61;94.55
9141;BME280;46330;50.822;7.126;2023-09-19T04:22:50;100447.22;;;14.60;94.27
9141;BME280;46330;50.822;7.126;2023-09-19T04:25:20;100449.09;;;14.57;94.87
9141;BME280;46330;50.822;7.126;2023-09-19T04:27:48;100449.34;;;14.50;94.35
9141;BME280;46330;50.822;7.126;2023-09-19T04:30:17;100456.25;;;14.53;94.46
9141;BME280;46330;50.822;7.126;2023-09-19T04:32:45;100459.88;;;14.50;94.36
9141;BME280;46330;50.822;7.126;2023-09-19T04:35:18;100456.25;;;14.53;94.74
9141;BME280;46330;50.822;7.126;2023-09-19T04:37:46;100453.00;;;14.46;94.44
9141;BME280;46330;50.822;7.126;2023-09-19T04:40:15;100456.53;;;14.45;94.17
9141;BME280;46330;50.822;7.126;2023-09-19T04:42:53;100456.38;;;14.50;94.16
9141;BME280;46330;50.822;7.126;2023-09-19T04:45:22;100459.88;;;14.50;94.14
9141;BME280;46330;50.822;7.126;2023-09-19T04:47:50;100457.28;;;14.49;94.57
9141;BME280;46330;50.822;7.126;2023-09-19T04:50:19;100456.50;;;14.47;94.43
9141;BME280;46330;50.822;7.126;2023-09-19T04:52:49;100460.88;;;14.46;94.38
9141;BME280;46330;50.822;7.126;2023-09-19T04:55:18;100462.22;;;14.35;94.14
9141;BME280;46330;50.822;7.126;2023-09-19T04:57:49;100463.91;;;14.36;94.00
9141;BME280;46330;50.822;7.126;2023-09-19T05:00:20;100469.94;;;14.39;93.59
9141;BME280;46330;50.822;7.126;2023-09-19T05:02:51;100462.94;;;14.38;94.21
9141;BME280;46330;50.822;7.126;2023-09-19T05:05:19;100466.53;;;14.36;93.93
9141;BME280;46330;50.822;7.126;2023-09-19T05:07:49;100471.75;;;14.37;93.90
9141;BME280;46330;50.822;7.126;2023-09-19T05:10:18;100469.34;;;14.31;93.46
9141;BME280;46330;50.822;7.126;2023-09-19T05:12:47;100477.94;;;14.36;94.08
9141;BME280;46330;50.822;7.126;2023-09-19T05:15:18;100474.50;;;14.34;93.56
9141;BME280;46330;50.822;7.126;2023-09-19T05:17:50;100483.34;;;14.32;93.67
9141;BME280;46330;50.822;7.126;2023-09-19T05:20:24;100486.72;;;14.35;93.35
9141;BME280;46330;50.822;7.126;2023-09-19T05:22:59;100495.88;;;14.25;93.06
9141;BME280;46330;50.822;7.126;2023-09-19T05:25:30;100501.91;;;14.27;93.47
9141;BME280;46330;50.822;7.126;2023-09-19T05:28:00;100497.41;;;14.31;93.20
9141;BME280;46330;50.822;7.126;2023-09-19T05:30:30;100506.41;;;14.25;93.33
9141;BME280;46330;50.822;7.126;2023-09-19T05:32:59;100503.81;;;14.24;93.48
9141;BME280;46330;50.822;7.126;2023-09-19T05:35:27;100500.19;;;14.26;93.38
9141;BME280;46330;50.822;7.126;2023-09-19T05:37:55;100517.81;;;14.24;92.72
9141;BME280;46330;50.822;7.126;2023-09-19T05:40:25;100521.13;;;14.29;92.86
9141;BME280;46330;50.822;7.126;2023-09-19T05:42:53;100529.00;;;14.31;93.29
9141;BME280;46330;50.822;7.126;2023-09-19T05:45:23;100528.84;;;14.35;93.69
9141;BME280;46330;50.822;7.126;2023-09-19T05:47:52;100528.84;;;14.35;92.72
9141;BME280;46330;50.822;7.126;2023-09-19T05:50:22;100531.47;;;14.35;92.21
9141;BME280;46330;50.822;7.126;2023-09-19T05:52:52;100540.94;;;14.41;92.28
9141;BME280;46330;50.822;7.126;2023-09-19T05:55:20;100545.44;;;14.37;92.29
9141;BME280;46330;50.822;7.126;2023-09-19T05:57:51;100542.81;;;14.37;92.20
9141;BME280;46330;50.822;7.126;2023-09-19T06:00:19;100544.50;;;14.38;91.90
9141;BME280;46330;50.822;7.126;2023-09-19T06:02:51;100542.69;;;14.40;91.67
9141;BME280;46330;50.822;7.126;2023-09-19T06:05:20;100548.53;;;14.48;91.52
9141;BME280;46330;50.822;7.126;2023-09-19T06:07:48;100556.53;;;14.45;91.42
9141;BME280;46330;50.822;7.126;2023-09-19T06:10:17;100561.47;;;14.54;90.36
9141;BME280;46330;50.822;7.126;2023-09-19T06:12:47;100566.84;;;14.51;90.21
9141;BME280;46330;50.822;7.126;2023-09-19T06:15:16;100576.09;;;14.63;90.45
9141;BME280;46330;50.822;7.126;2023-09-19T06:17:47;100566.56;;;14.59;89.86
9141;BME280;46330;50.822;7.126;2023-09-19T06:20:15;100562.69;;;14.69;89.21
9141;BME280;46330;50.822;7.126;2023-09-19T06:22:45;100580.25;;;14.69;89.29
9141;BME280;46330;50.822;7.126;2023-09-19T06:25:14;100579.69;;;14.84;89.54
9141;BME280;46330;50.822;7.126;2023-09-19T06:27:46;100583.81;;;14.91;89.14
9141;BME280;46330;50.822;7.126;2023-09-19T06:30:15;100588.34;;;14.87;89.19
9141;BME280;46330;50.822;7.126;2023-09-19T06:32:44;100584.03;;;14.85;88.45
9141;BME280;46330;50.822;7.126;2023-09-19T06:35:15;100583.97;;;14.86;88.38
9141;BME280;46330;50.822;7.126;2023-09-19T06:37:43;100591.63;;;14.92;87.83
9141;BME280;46330;50.822;7.126;2023-09-19T06:40:12;100579.56;;;14.87;87.56
9141;BME280;46330;50.822;7.126;2023-09-19T06:42:41;100590.50;;;14.99;87.42
9141;BME280;46330;50.822;7.126;2023-09-19T06:45:09;100588.25;;;15.12;87.13
9141;BME280;46330;50.822;7.126;2023-09-19T06:47:40;100591.63;;;15.16;86.09
9141;BME280;46330;50.822;7.126;2023-09-19T06:50:08;100587.69;;;15.26;85.71
9141;BME280;46330;50.822;7.126;2023-09-19T06:52:41;100594.31;;;15.36;85.15
9141;BME280;46330;50.822;7.126;2023-09-19T06:55:09;100596.84;;;15.39;84.60
9141;BME280;46330;50.822;7.126;2023-09-19T06:57:40;100599.84;;;15.53;84.10
9141;BME280;46330;50.822;7.126;2023-09-19T07:00:11;100601.66;;;15.73;83.65
9141;BME280;46330;50.822;7.126;2023-09-19T07:02:45;100604.16;;;15.76;81.81
9141;BME280;46330;50.822;7.126;2023-09-19T07:05:13;100601.22;;;16.03;80.11
9141;BME280;46330;50.822;7.126;2023-09-19T07:07:43;100609.47;;;16.16;80.86
9141;BME280;46330;50.822;7.126;2023-09-19T07:10:12;100605.28;;;16.12;79.47
9141;BME280;46330;50.822;7.126;2023-09-19T07:12:41;100599.22;;;16.30;79.57
9141;BME280;46330;50.822;7.126;2023-09-19T07:15:10;100598.22;;;16.53;78.35
9141;BME280;46330;50.822;7.126;2023-09-19T07:17:38;100608.91;;;16.70;77.61
9141;BME280;46330;50.822;7.126;2023-09-19T07:20:07;100596.88;;;16.63;75.60
9141;BME280;46330;50.822;7.126;2023-09-19T07:22:37;100603.09;;;16.22;77.13
9141;BME280;46330;50.822;7.126;2023-09-19T07:25:08;100603.97;;;16.62;76.96
9141;BME280;46330;50.822;7.126;2023-09-19T07:27:36;100603.13;;;16.62;75.99
9141;BME280;46330;50.822;7.126;2023-09-19T07:30:05;100603.88;;;17.03;74.55
9141;BME280;46330;50.822;7.126;2023-09-19T07:32:34;100611.66;;;17.25;72.71
9141;BME280;46330;50.822;7.126;2023-09-19T07:35:04;100618.00;;;17.39;72.25
9141;BME280;46330;50.822;7.126;2023-09-19T07:37:33;100609.00;;;17.43;72.09
9141;BME280;46330;50.822;7.126;2023-09-19T07:40:04;100612.38;;;17.83;69.88
9141;BME280;46330;50.822;7.126;2023-09-19T07:42:35;100614.69;;;17.53;70.33
9141;BME280;46330;50.822;7.126;2023-09-19T07:45:04;100615.69;;;17.69;70.81
9141;BME280;46330;50.822;7.126;2023-09-19T07:47:33;100618.78;;;17.96;70.42
9141;BME280;46330;50.822;7.126;2023-09-19T07:50:03;100618.03;;;17.75;68.73
9141;BME280;46330;50.822;7.126;2023-09-19T07:52:34;100616.44;;;18.07;68.24
9141;BME280;46330;50.822;7.126;2023-09-19T07:55:02;100614.81;;;17.68;70.36
9141;BME280;46330;50.822;7.126;2023-09-19T07:57:37;100612.56;;;18.14;69.04
9141;BME280;46330;50.822;7.126;2023-09-19T08:00:05;100611.13;;;18.41;68.13
9141;BME280;46330;50.822;7.126;2023-09-19T08:02:37;100609.09;;;18.96;66.39
9141;BME280;46330;50.822;7.126;2023-09-19T08:05:06;100618.03;;;19.11;66.54
9141;BME280;46330;50.822;7.126;2023-09-19T08:07:37;100615.41;;;18.94;63.67
9141;BME280;46330;50.822;7.126;2023-09-19T08:10:06;100621.88;;;19.37;63.91
9141;BME280;46330;50.822;7.126;2023-09-19T08:12:42;100623.63;;;18.56;65.29
9141;BME280;46330;50.822;7.126;2023-09-19T08:15:13;100626.09;;;18.25;66.55
9141;BME280;46330;50.822;7.126;2023-09-19T08:17:41;100626.09;;;18.42;65.92
9141;BME280;46330;50.822;7.126;2023-09-19T08:20:10;100628.31;;;19.17;64.17
9141;BME280;46330;50.822;7.126;2023-09-19T08:22:43;100624.53;;;19.05;64.13
9141;BME280;46330;50.822;7.126;2023-09-19T08:25:14;100624.38;;;19.55;63.15
9141;BME280;46330;50.822;7.126;2023-09-19T08:27:47;100615.91;;;19.80;62.67
9141;BME280;46330;50.822;7.126;2023-09-19T08:30:16;100620.75;;;19.25;63.24
9141;BME280;46330;50.822;7.126;2023-09-19T08:32:47;100623.03;;;19.48;62.11
9141;BME280;46330;50.822;7.126;2023-09-19T08:35:15;100621.78;;;19.85;60.17
9141;BME280;46330;50.822;7.126;2023-09-19T08:37:43;100618.94;;;19.43;61.57
9141;BME280;46330;50.822;7.126;2023-09-19T08:40:12;100619.13;;;19.85;60.05
9141;BME280;46330;50.822;7.126;2023-09-19T08:42:52;100611.94;;;20.32;57.29
9141;BME280;46330;50.822;7.126;2023-09-19T08:45:21;100631.03;;;19.94;60.03
9141;BME280;46330;50.822;7.126;2023-09-19T08:47:59;100627.06;;;19.40;59.43
9141;BME280;46330;50.822;7.126;2023-09-19T08:50:29;100626.19;;;18.91;58.94
9141;BME280;46330;50.822;7.126;2023-09-19T08:53:00;100627.81;;;18.93;59.37
9141;BME280;46330;50.822;7.126;2023-09-19T08:55:29;100616.59;;;19.21;59.47
9141;BME280;46330;50.822;7.126;2023-09-19T08:58:03;100617.84;;;18.98;59.77
9141;BME280;46330;50.822;7.126;2023-09-19T09:00:34;100616.06;;;19.30;58.56
9141;BME280;46330;50.822;7.126;2023-09-19T09:03:04;100617.91;;;20.36;56.94
9141;BME280;46330;50.822;7.126;2023-09-19T09:05:36;100625.22;;;19.71;55.93
9141;BME280;46330;50.822;7.126;2023-09-19T09:08:08;100616.53;;;19.99;56.40
9141;BME280;46330;50.822;7.126;2023-09-19T09:10:38;100617.75;;;20.23;55.58
9141;BME280;46330;50.822;7.126;2023-09-19T09:13:09;100616.88;;;20.53;53.88
9141;BME280;46330;50.822;7.126;2023-09-19T09:15:41;100621.91;;;20.43;54.18
9141;BME280;46330;50.822;7.126;2023-09-19T09:18:11;100624.50;;;19.99;55.52
9141;BME280;46330;50.822;7.126;2023-09-19T09:20:40;100628.88;;;20.30;54.72
9141;BME280;46330;50.822;7.126;2023-09-19T09:23:08;100623.16;;;20.80;53.77
9141;BME280;46330;50.822;7.126;2023-09-19T09:25:50;100630.97;;;20.69;52.74
9141;BME280;46330;50.822;7.126;2023-09-19T09:28:24;100625.84;;;21.22;53.70
9141;BME280;46330;50.822;7.126;2023-09-19T09:30:53;100623.66;;;20.72;53.67
9141;BME280;46330;50.822;7.126;2023-09-19T09:33:22;100624.81;;;20.09;55.70
9141;BME280;46330;50.822;7.126;2023-09-19T09:35:52;100617.94;;;20.92;52.78
9141;BME280;46330;50.822;7.126;2023-09-19T09:38:24;100616.44;;;21.58;52.23
9141;BME280;46330;50.822;7.126;2023-09-19T09:40:55;100616.28;;;21.47;51.86
9141;BME280;46330;50.822;7.126;2023-09-19T09:43:32;100608.38;;;21.18;50.41
9141;BME280;46330;50.822;7.126;2023-09-19T09:46:07;100602.63;;;21.38;50.95
9141;BME280;46330;50.822;7.126;2023-09-19T09:49:00;100620.66;;;21.74;51.05
9141;BME280;46330;50.822;7.126;2023-09-19T09:51:47;100606.81;;;22.86;47.92
9141;BME280;46330;50.822;7.126;2023-09-19T09:54:25;100614.41;;;22.02;48.66
9141;BME280;46330;50.822;7.126;2023-09-19T09:56:55;100607.97;;;22.31;48.03
9141;BME280;46330;50.822;7.126;2023-09-19T09:59:48;100616.22;;;21.06;50.51
9141;BME280;46330;50.822;7.126;2023-09-19T10:02:25;100601.19;;;21.47;49.56
9141;BME280;46330;50.822;7.126;2023-09-19T10:04:57;100602.97;;;21.20;50.48
9141;BME280;46330;50.822;7.126;2023-09-19T10:07:41;100608.84;;;20.97;50.39
9141;BME280;46330;50.822;7.126;2023-09-19T10:10:29;100610.75;;;20.95;51.08
9141;BME280;46330;50.822;7.126;2023-09-19T10:13:06;100609.56;;;21.68;50.52
9141;BME280;46330;50.822;7.126;2023-09-19T10:15:42;100604.56;;;21.22;49.63
9141;BME280;46330;50.822;7.126;2023-09-19T10:18:14;100596.50;;;21.77;49.14
9141;BME280;46330;50.822;7.126;2023-09-19T10:20:45;100600.09;;;21.64;49.74
9141;BME280;46330;50.822;7.126;2023-09-19T10:23:17;100604.72;;;21.05;50.87
9141;BME280;46330;50.822;7.126;2023-09-19T10:25:49;100595.66;;;21.77;50.18
9141;BME280;46330;50.822;7.126;2023-09-19T10:28:20;100588.97;;;21.84;48.79
9141;BME280;46330;50.822;7.126;2023-09-19T10:30:52;100605.16;;;21.81;48.09
9141;BME280;46330;50.822;7.126;2023-09-19T10:33:21;100591.72;;;22.09;47.71
9141;BME280;46330;50.822;7.126;2023-09-19T10:35:53;100595.22;;;21.97;49.10
9141;BME280;46330;50.822;7.126;2023-09-19T10:38:24;100596.44;;;22.31;45.78
9141;BME280;46330;50.822;7.126;2023-09-19T10:40:54;100582.34;;;22.04;47.17
9141;BME280;46330;50.822;7.126;2023-09-19T10:43:26;100580.00;;;21.72;48.07
9141;BME280;46330;50.822;7.126;2023-09-19T10:46:06;100592.59;;;22.10;46.57
9141;BME280;46330;50.822;7.126;2023-09-19T10:48:38;100583.41;;;22.14;47.19
9141;BME280;46330;50.822;7.126;2023-09-19T10:51:09;100590.44;;;22.02;46.72
9141;BME280;46330;50.822;7.126;2023-09-19T10:53:45;100582.97;;;21.94;45.87
9141;BME280;46330;50.822;7.126;2023-09-19T10:56:19;100584.31;;;22.52;45.90
9141;BME280;46330;50.822;7.126;2023-09-19T10:58:49;100585.06;;;22.79;44.26
9141;BME280;46330;50.822;7.126;2023-09-19T11:01:19;100583.88;;;22.96;45.14
9141;BME280;46330;50.822;7.126;2023-09-19T11:03:48;100586.22;;;22.50;45.22
9141;BME280;46330;50.822;7.126;2023-09-19T11:06:39;100588.94;;;21.98;46.28
9141;BME280;46330;50.822;7.126;2023-09-19T11:09:08;100584.72;;;22.33;45.91
9141;BME280;46330;50.822;7.126;2023-09-19T11:11:53;100580.47;;;22.31;46.63
9141;BME280;46330;50.822;7.126;2023-09-19T11:14:29;100567.44;;;22.64;47.11
9141;BME280;46330;50.822;7.126;2023-09-19T11:17:34;100571.75;;;22.54;45.75
9141;BME280;46330;50.822;7.126;2023-09-19T11:20:20;100574.28;;;22.56;44.78
9141;BME280;46330;50.822;7.126;2023-09-19T11:23:20;100578.88;;;22.91;43.79
9141;BME280;46330;50.822;7.126;2023-09-19T11:25:55;100574.41;;;22.41;44.56
9141;BME280;46330;50.822;7.126;2023-09-19T11:28:33;100578.06;;;22.14;45.48
9141;BME280;46330;50.822;7.126;2023-09-19T11:34:52;100579.16;;;21.84;45.41
9141;BME280;46330;50.822;7.126;2023-09-19T11:37:59;100582.78;;;22.98;43.45
9141;BME280;46330;50.822;7.126;2023-09-19T11:40:34;100574.06;;;22.46;44.07
9141;BME280;46330;50.822;7.126;2023-09-19T11:43:32;100588.28;;;22.84;42.55
9141;BME280;46330;50.822;7.126;2023-09-19T11:46:05;100591.91;;;21.93;43.74
9141;BME280;46330;50.822;7.126;2023-09-19T11:48:34;100583.97;;;22.31;42.65
9141;BME280;46330;50.822;7.126;2023-09-19T11:51:16;100591.44;;;22.51;42.07
9141;BME280;46330;50.822;7.126;2023-09-19T11:53:50;100582.56;;;22.01;42.05
9141;BME280;46330;50.822;7.126;2023-09-19T11:56:20;100584.41;;;22.25;42.87
9141;BME280;46330;50.822;7.126;2023-09-19T11:58:49;100592.22;;;22.02;43.78
9141;BME280;46330;50.822;7.126;2023-09-19T12:01:25;100598.19;;;22.70;42.07
9141;BME280;46330;50.822;7.126;2023-09-19T12:03:57;100588.47;;;22.94;42.16
9141;BME280;46330;50.822;7.126;2023-09-19T12:06:28;100580.19;;;23.59;40.27
9141;BME280;46330;50.822;7.126;2023-09-19T12:08:58;100582.25;;;23.06;41.10
9141;BME280;46330;50.822;7.126;2023-09-19T12:11:29;100583.56;;;23.00;42.22
9141;BME280;46330;50.822;7.126;2023-09-19T12:14:01;100592.63;;;22.60;42.04
9141;BME280;46330;50.822;7.126;2023-09-19T12:16:31;100570.59;;;23.07;41.39
9141;BME280;46330;50.822;7.126;2023-09-19T12:19:19;100579.50;;;22.82;41.34
9141;BME280;46330;50.822;7.126;2023-09-19T12:22:01;100573.22;;;22.83;40.71
9141;BME280;46330;50.822;7.126;2023-09-19T12:24:32;100581.97;;;23.34;40.09
9141;BME280;46330;50.822;7.126;2023-09-19T12:27:04;100581.81;;;23.96;39.67
9141;BME280;46330;50.822;7.126;2023-09-19T12:29:42;100576.56;;;23.60;40.37
9141;BME280;46330;50.822;7.126;2023-09-19T12:32:11;100576.56;;;23.94;39.21
9141;BME280;46330;50.822;7.126;2023-09-19T12:34:39;100570.97;;;23.26;39.83
9141;BME280;46330;50.822;7.126;2023-09-19T12:37:12;100575.84;;;23.45;40.50
9141;BME280;46330;50.822;7.126;2023-09-19T12:39:43;100576.78;;;23.20;40.46
9141;BME280;46330;50.822;7.126;2023-09-19T12:42:16;100564.09;;;23.11;40.63
9141;BME280;46330;50.822;7.126;2023-09-19T12:44:45;100561.91;;;22.80;42.57
9141;BME280;46330;50.822;7.126;2023-09-19T12:47:15;100558.53;;;22.65;41.70
9141;BME280;46330;50.822;7.126;2023-09-19T12:50:06;100556.72;;;23.75;40.43
9141;BME280;46330;50.822;7.126;2023-09-19T12:52:36;100562.16;;;23.26;41.22
9141;BME280;46330;50.822;7.126;2023-09-19T12:55:05;100556.66;;;23.03;40.86
9141;BME280;46330;50.822;7.126;2023-09-19T12:57:34;100561.22;;;23.74;40.66
9141;BME280;46330;50.822;7.126;2023-09-19T13:00:04;100552.34;;;23.74;39.41
9141;BME280;46330;50.822;7.126;2023-09-19T13:02:32;100570.28;;;23.12;40.98
9141;BME280;46330;50.822;7.126;2023-09-19T13:05:01;100559.16;;;23.18;40.85
9141;BME280;46330;50.822;7.126;2023-09-19T13:07:41;100555.94;;;22.51;42.44
9141;BME280;46330;50.822;7.126;2023-09-19T13:10:13;100556.72;;;23.38;41.25
9141;BME280;46330;50.822;7.126;2023-09-19T13:12:44;100553.84;;;23.05;42.39
9141;BME280;46330;50.822;7.126;2023-09-19T13:15:15;100561.28;;;22.76;42.27
9141;BME280;46330;50.822;7.126;2023-09-19T13:17:47;100555.72;;;23.41;41.53
9141;BME280;46330;50.822;7.126;2023-09-19T13:20:23;100545.81;;;22.81;41.61
9141;BME280;46330;50.822;7.126;2023-09-19T13:22:57;100550.88;;;23.10;41.39
9141;BME280;46330;50.822;7.126;2023-09-19T13:25:27;100550.81;;;22.48;42.64
9141;BME280;46330;50.822;7.126;2023-09-19T13:27:57;100556.59;;;22.67;41.57
9141;BME280;46330;50.822;7.126;2023-09-19T13:30:27;100542.56;;;23.01;41.25
9141;BME280;46330;50.822;7.126;2023-09-19T13:33:14;100534.00;;;22.73;41.42
9141;BME280;46330;50.822;7.126;2023-09-19T13:35:47;100532.50;;;23.05;42.20